Time;durP1;ratioP1;P1;durP2;ratioP2;P2;SDS_P1;SDS_P2;PMS_P1;PMS_P2;Temp;Humidity;BMP_temperature;BMP_pressure;BME280_temperature;BME280_humidity;BME280_pressure;Samples;Min_cycle;Max_cycle;Signal;HPM_P1;HPM_P2
2021/06/25 00:00:54;;;;;;;;;;;14.50;99.90;;;;;;5075078;28;19919;-64
2021/06/25 00:03:20;;;;;;;;;;;14.50;99.90;;;;;;5072242;28;20299;-62
2021/06/25 00:05:46;;;;;;;;;;;14.50;99.90;;;;;;5074540;28;19927;-62
2021/06/25 00:08:12;;;;;;;;;;;14.50;99.90;;;;;;5073914;28;19927;-62
2021/06/25 00:10:38;;;;;;;;;;;14.50;99.90;;;;;;5073805;28;19919;-65
2021/06/25 00:13:04;;;;;;;;;;;14.50;99.90;;;;;;5074758;28;20293;-64
2021/06/25 00:15:30;;;;;;;;;;;14.50;99.90;;;;;;5056391;28;19950;-64
2021/06/25 00:17:58;;;;;;;;;;;14.50;99.90;;;;;;5075045;28;19913;-64
2021/06/25 00:20:24;;;;;;;;;;;14.50;99.90;;;;;;5053045;28;20370;-64
2021/06/25 00:22:50;;;;;;;;;;;14.50;99.90;;;;;;5073496;28;20296;-64
2021/06/25 00:25:16;;;;;;;;;;;14.60;99.90;;;;;;5073151;28;19916;-63
2021/06/25 00:27:42;;;;;;;;;;;14.60;99.90;;;;;;5074729;28;19927;-64
2021/06/25 00:30:08;;;;;;;;;;;14.60;99.90;;;;;;5056724;28;19904;-63
2021/06/25 00:32:34;;;;;;;;;;;14.70;99.90;;;;;;5074800;28;19915;-64
2021/06/25 00:35:00;;;;;;;;;;;14.60;99.90;;;;;;5074862;28;19909;-64
2021/06/25 00:37:26;;;;;;;;;;;14.60;99.90;;;;;;5073755;28;19920;-64
2021/06/25 00:39:52;;;;;;;;;;;14.50;99.90;;;;;;5073837;28;20345;-63
2021/06/25 00:42:18;;;;;;;;;;;14.50;99.90;;;;;;5074344;28;19908;-63
2021/06/25 00:44:44;;;;;;;;;;;14.50;99.90;;;;;;5074548;28;19915;-61
2021/06/25 00:47:10;;;;;;;;;;;14.40;99.90;;;;;;5072334;28;19928;-63
2021/06/25 00:49:36;;;;;;;;;;;14.40;99.90;;;;;;5056440;28;19923;-64
2021/06/25 00:52:02;;;;;;;;;;;14.40;99.90;;;;;;5056169;28;20376;-65
2021/06/25 00:54:28;;;;;;;;;;;14.40;99.90;;;;;;5074267;28;19908;-63
2021/06/25 00:56:54;;;;;;;;;;;14.40;99.90;;;;;;5073499;28;19919;-64
2021/06/25 00:59:20;;;;;;;;;;;14.40;99.90;;;;;;5055928;28;19954;-63
2021/06/25 01:01:46;;;;;;;;;;;14.40;99.90;;;;;;5073259;28;19908;-64
2021/06/25 01:04:12;;;;;;;;;;;14.40;99.90;;;;;;5073482;28;19913;-64
2021/06/25 01:06:38;;;;;;;;;;;14.40;99.90;;;;;;5056102;28;19923;-65
2021/06/25 01:09:04;;;;;;;;;;;14.40;99.90;;;;;;5072512;28;20285;-62
2021/06/25 01:11:30;;;;;;;;;;;14.50;99.90;;;;;;5055852;28;19909;-64
2021/06/25 01:13:57;;;;;;;;;;;14.50;99.90;;;;;;5073864;28;20353;-63
2021/06/25 01:16:23;;;;;;;;;;;14.50;99.90;;;;;;5073546;28;19908;-64
2021/06/25 01:18:49;;;;;;;;;;;14.50;99.90;;;;;;5055135;28;19962;-63
2021/06/25 01:21:15;;;;;;;;;;;14.50;99.90;;;;;;5073431;28;19908;-63
2021/06/25 01:23:42;;;;;;;;;;;14.50;99.90;;;;;;5073585;28;20362;-63
2021/06/25 01:26:08;;;;;;;;;;;14.40;99.90;;;;;;5073375;28;19904;-63
2021/06/25 01:28:34;;;;;;;;;;;14.40;99.90;;;;;;5071984;28;19920;-64
2021/06/25 01:31:00;;;;;;;;;;;14.40;99.90;;;;;;5072680;28;19913;-63
2021/06/25 01:33:26;;;;;;;;;;;14.40;99.90;;;;;;5055487;28;19911;-63
2021/06/25 01:35:52;;;;;;;;;;;14.30;99.90;;;;;;5055554;28;20284;-62
2021/06/25 01:38:18;;;;;;;;;;;14.30;99.90;;;;;;5070700;28;19920;-64
2021/06/25 01:40:44;;;;;;;;;;;14.30;99.90;;;;;;5072629;28;19916;-64
2021/06/25 01:43:12;;;;;;;;;;;14.20;99.90;;;;;;5071984;28;20348;-62
2021/06/25 01:45:37;;;;;;;;;;;14.20;99.90;;;;;;5072156;28;20387;-63
2021/06/25 01:48:04;;;;;;;;;;;14.10;99.90;;;;;;5073157;28;20015;-63
2021/06/25 01:50:30;;;;;;;;;;;14.00;99.90;;;;;;5072241;28;20369;-64
2021/06/25 01:52:59;;;;;;;;;;;13.90;99.90;;;;;;5073262;28;20250;-64
2021/06/25 01:55:25;;;;;;;;;;;13.80;99.90;;;;;;5063719;28;19976;-65
2021/06/25 01:57:51;;;;;;;;;;;13.80;99.90;;;;;;5036898;28;20285;-64
2021/06/25 02:00:17;;;;;;;;;;;13.80;99.90;;;;;;5054181;28;19939;-62
2021/06/25 02:02:43;;;;;;;;;;;13.70;99.90;;;;;;5072748;28;19912;-64
2021/06/25 02:05:09;;;;;;;;;;;13.60;99.90;;;;;;5072800;28;19909;-65
2021/06/25 02:07:35;;;;;;;;;;;13.60;99.90;;;;;;5055150;28;19916;-64
2021/06/25 02:10:01;;;;;;;;;;;13.50;99.90;;;;;;5072672;28;19908;-64
2021/06/25 02:12:27;;;;;;;;;;;13.40;99.90;;;;;;5071655;28;19916;-64
2021/06/25 02:14:53;;;;;;;;;;;13.40;99.90;;;;;;5072482;28;19919;-65
2021/06/25 02:17:19;;;;;;;;;;;13.30;99.90;;;;;;5072808;28;19912;-63
2021/06/25 02:19:45;;;;;;;;;;;13.20;99.90;;;;;;5054701;28;19905;-63
2021/06/25 02:22:11;;;;;;;;;;;13.20;99.90;;;;;;5071878;28;19908;-65
2021/06/25 02:24:37;;;;;;;;;;;13.10;99.90;;;;;;5070214;28;19908;-64
2021/06/25 02:27:04;;;;;;;;;;;13.10;99.90;;;;;;5052755;28;20007;-63
2021/06/25 02:29:30;;;;;;;;;;;13.10;99.90;;;;;;5052429;28;20274;-64
2021/06/25 02:31:56;;;;;;;;;;;13.10;99.90;;;;;;5052706;28;19909;-64
2021/06/25 02:34:22;;;;;;;;;;;13.10;99.90;;;;;;5033912;28;19913;-63
2021/06/25 02:36:48;;;;;;;;;;;13.10;99.90;;;;;;5058867;28;19920;-63
2021/06/25 02:39:13;;;;;;;;;;;13.10;99.90;;;;;;5071924;28;20361;-63
2021/06/25 02:41:40;;;;;;;;;;;13.00;99.90;;;;;;5073326;28;20003;-63
2021/06/25 02:44:05;;;;;;;;;;;13.00;99.90;;;;;;5057907;28;19908;-63
2021/06/25 02:46:31;;;;;;;;;;;13.00;99.90;;;;;;5076485;28;19904;-63
2021/06/25 02:48:57;;;;;;;;;;;13.00;99.90;;;;;;5076550;28;20311;-64
2021/06/25 02:51:23;;;;;;;;;;;12.90;99.90;;;;;;5076448;28;20349;-64
2021/06/25 02:53:49;;;;;;;;;;;12.90;99.90;;;;;;5075942;28;19912;-64
2021/06/25 02:56:15;;;;;;;;;;;12.90;99.90;;;;;;5059842;28;19913;-64
2021/06/25 02:58:41;;;;;;;;;;;13.00;99.90;;;;;;5056565;28;20277;-62
2021/06/25 03:01:07;;;;;;;;;;;12.90;99.90;;;;;;5064464;28;19905;-62
2021/06/25 03:03:33;;;;;;;;;;;12.90;99.90;;;;;;5075556;28;20362;-63
2021/06/25 03:05:59;;;;;;;;;;;12.90;99.90;;;;;;5075651;28;19908;-63
2021/06/25 03:08:24;;;;;;;;;;;12.80;99.90;;;;;;5075245;28;19924;-63
2021/06/25 03:10:50;;;;;;;;;;;12.90;99.90;;;;;;5076244;28;19908;-64
2021/06/25 03:13:17;;;;;;;;;;;12.90;99.90;;;;;;5074756;28;19921;-64
2021/06/25 03:15:43;;;;;;;;;;;12.90;99.90;;;;;;5057809;28;19915;-63
2021/06/25 03:18:09;;;;;;;;;;;12.90;99.90;;;;;;5076078;28;19909;-64
2021/06/25 03:20:35;;;;;;;;;;;12.90;99.90;;;;;;5075756;28;19912;-64
2021/06/25 03:23:01;;;;;;;;;;;12.90;99.90;;;;;;5076013;28;19916;-63
2021/06/25 03:25:26;;;;;;;;;;;12.90;99.90;;;;;;5065943;28;20284;-63
2021/06/25 03:27:52;;;;;;;;;;;13.00;99.90;;;;;;5055546;28;19939;-63
2021/06/25 03:30:19;;;;;;;;;;;12.90;99.90;;;;;;5069753;28;20285;-64
2021/06/25 03:32:44;;;;;;;;;;;13.00;99.90;;;;;;5057796;28;20369;-63
2021/06/25 03:35:11;;;;;;;;;;;13.10;99.90;;;;;;5076325;28;19908;-63
2021/06/25 03:37:37;;;;;;;;;;;13.10;99.90;;;;;;5056366;28;19927;-64
2021/06/25 03:40:06;;;;;;;;;;;13.20;99.90;;;;;;5056076;28;19915;-64
2021/06/25 03:42:32;;;;;;;;;;;13.30;99.90;;;;;;5074321;28;19908;-64
2021/06/25 03:44:58;;;;;;;;;;;13.30;99.90;;;;;;5074493;28;19916;-64
2021/06/25 03:47:24;;;;;;;;;;;13.40;99.90;;;;;;5073381;28;19927;-63
2021/06/25 03:49:50;;;;;;;;;;;13.50;99.90;;;;;;5074504;28;20407;-63
2021/06/25 03:52:16;;;;;;;;;;;13.60;99.90;;;;;;5073442;28;19915;-64
2021/06/25 03:54:43;;;;;;;;;;;13.70;99.90;;;;;;5052261;28;19920;-64
2021/06/25 03:57:09;;;;;;;;;;;13.80;99.90;;;;;;5036519;28;19912;-64
2021/06/25 03:59:35;;;;;;;;;;;13.80;99.90;;;;;;5053665;28;19916;-63
2021/06/25 04:02:01;;;;;;;;;;;13.90;99.90;;;;;;5073400;28;19951;-63
2021/06/25 04:04:26;;;;;;;;;;;13.90;99.90;;;;;;5070475;28;20329;-65
2021/06/25 04:06:52;;;;;;;;;;;13.90;99.90;;;;;;5073155;28;19913;-63
2021/06/25 04:09:18;;;;;;;;;;;13.90;99.90;;;;;;5072079;28;19904;-63
2021/06/25 04:11:44;;;;;;;;;;;13.90;99.90;;;;;;5072752;28;19912;-64
2021/06/25 04:14:10;;;;;;;;;;;13.90;99.90;;;;;;5073347;28;19913;-62
2021/06/25 04:16:36;;;;;;;;;;;13.90;99.90;;;;;;5073298;28;19913;-63
2021/06/25 04:19:02;;;;;;;;;;;13.90;99.90;;;;;;5072520;28;19923;-63
2021/06/25 04:21:28;;;;;;;;;;;13.90;99.90;;;;;;5072715;28;19908;-63
2021/06/25 04:23:54;;;;;;;;;;;14.00;99.90;;;;;;5073273;28;19916;-62
2021/06/25 04:26:20;;;;;;;;;;;14.10;99.90;;;;;;5070227;28;20284;-64
2021/06/25 04:28:46;;;;;;;;;;;14.10;99.90;;;;;;5073550;28;19920;-62
2021/06/25 04:31:12;;;;;;;;;;;14.30;99.90;;;;;;5073096;28;19909;-62
2021/06/25 04:33:39;;;;;;;;;;;14.30;99.90;;;;;;5073528;28;19908;-63
2021/06/25 04:36:05;;;;;;;;;;;14.40;99.90;;;;;;5073913;28;20293;-63
2021/06/25 04:38:31;;;;;;;;;;;14.40;99.90;;;;;;5034568;28;1099771;-63
2021/06/25 04:40:57;;;;;;;;;;;14.50;99.90;;;;;;5073765;28;20269;-62
2021/06/25 04:43:23;;;;;;;;;;;14.50;99.90;;;;;;5072879;28;19911;-63
2021/06/25 04:45:49;;;;;;;;;;;14.60;99.90;;;;;;5074614;28;19912;-63
2021/06/25 04:48:15;;;;;;;;;;;14.70;99.90;;;;;;5074253;28;19920;-63
2021/06/25 04:50:41;;;;;;;;;;;14.70;99.90;;;;;;5073606;28;20236;-64
2021/06/25 04:53:07;;;;;;;;;;;14.80;99.90;;;;;;5073256;28;20304;-63
2021/06/25 04:55:42;;;;;;;;;;;15.00;99.90;;;;;;5063805;28;19912;-62
2021/06/25 04:58:09;;;;;;;;;;;15.10;99.90;;;;;;5054225;28;19909;-63
2021/06/25 05:00:35;;;;;;;;;;;15.20;99.90;;;;;;5054035;28;19913;-64
2021/06/25 05:03:01;;;;;;;;;;;15.30;99.90;;;;;;5053313;28;19916;-62
2021/06/25 05:05:27;;;;;;;;;;;15.40;99.90;;;;;;5053544;28;19912;-64
2021/06/25 05:07:53;;;;;;;;;;;15.50;99.90;;;;;;5045451;28;19923;-61
2021/06/25 05:10:19;;;;;;;;;;;15.70;99.90;;;;;;5071827;28;19912;-62
2021/06/25 05:12:45;;;;;;;;;;;15.90;99.90;;;;;;5072537;28;19912;-62
2021/06/25 05:15:11;;;;;;;;;;;15.90;99.90;;;;;;5073900;28;20258;-62
2021/06/25 05:17:37;;;;;;;;;;;15.90;99.90;;;;;;5073500;28;19912;-62
2021/06/25 05:20:03;;;;;;;;;;;15.90;99.90;;;;;;5073263;28;20395;-63
2021/06/25 05:22:29;;;;;;;;;;;15.80;99.90;;;;;;5071785;28;19916;-62
2021/06/25 05:24:55;;;;;;;;;;;15.80;99.90;;;;;;5072428;28;20335;-63
2021/06/25 05:27:21;;;;;;;;;;;15.70;99.90;;;;;;5073347;28;19911;-63
2021/06/25 05:29:47;;;;;;;;;;;15.60;99.90;;;;;;5055306;28;19932;-62
2021/06/25 05:32:13;;;;;;;;;;;15.50;99.90;;;;;;5067261;28;19963;-63
2021/06/25 05:34:39;;;;;;;;;;;15.70;99.90;;;;;;5035200;28;19920;-62
2021/06/25 05:37:05;;;;;;;;;;;15.90;99.90;;;;;;5072953;28;19936;-62
2021/06/25 05:39:31;;;;;;;;;;;16.00;99.90;;;;;;5072677;28;19913;-63
2021/06/25 05:41:57;;;;;;;;;;;16.30;99.90;;;;;;5072651;28;20266;-62
2021/06/25 05:44:23;;;;;;;;;;;16.40;99.90;;;;;;5072464;28;20369;-64
2021/06/25 05:46:49;;;;;;;;;;;16.60;99.90;;;;;;5072821;28;19917;-63
2021/06/25 05:49:15;;;;;;;;;;;16.70;99.90;;;;;;5071231;28;19921;-63
2021/06/25 05:51:40;;;;;;;;;;;16.60;99.90;;;;;;5072458;28;19908;-63
2021/06/25 05:54:06;;;;;;;;;;;16.60;99.90;;;;;;5072635;28;19930;-61
2021/06/25 05:56:32;;;;;;;;;;;16.50;99.90;;;;;;5069963;28;20266;-63
2021/06/25 05:58:58;;;;;;;;;;;16.50;99.90;;;;;;5073271;28;19923;-63
2021/06/25 06:01:24;;;;;;;;;;;16.50;99.90;;;;;;5072861;28;19915;-63
2021/06/25 06:03:50;;;;;;;;;;;16.50;99.90;;;;;;5073128;28;19919;-63
2021/06/25 06:06:16;;;;;;;;;;;16.50;99.90;;;;;;5072012;28;20284;-63
2021/06/25 06:08:42;;;;;;;;;;;16.50;99.90;;;;;;5072287;28;19912;-62
2021/06/25 06:11:08;;;;;;;;;;;16.60;99.90;;;;;;5073035;28;19908;-62
2021/06/25 06:13:34;;;;;;;;;;;16.50;99.90;;;;;;5072768;28;19912;-58
2021/06/25 06:15:59;;;;;;;;;;;16.30;99.90;;;;;;5072024;28;19912;-63
2021/06/25 06:18:33;;;;;;;;;;;16.20;99.90;;;;;;5071385;28;20284;-63
2021/06/25 06:20:59;;;;;;;;;;;16.20;99.90;;;;;;5072942;28;19908;-64
2021/06/25 06:31:42;;;;;;;;;;;16.40;99.90;;;;;;5063284;28;19919;-64
2021/06/25 06:34:12;;;;;;;;;;;16.40;99.90;;;;;;5072077;28;19919;-63
2021/06/25 06:36:45;;;;;;;;;;;16.40;99.90;;;;;;5071988;28;19909;-62
2021/06/25 06:39:12;;;;;;;;;;;16.50;99.90;;;;;;5071913;28;19912;-63
2021/06/25 06:41:38;;;;;;;;;;;16.70;99.90;;;;;;5071661;28;19919;-63
2021/06/25 06:44:04;;;;;;;;;;;17.00;99.90;;;;;;5072493;28;19909;-62
2021/06/25 06:46:30;;;;;;;;;;;17.10;99.90;;;;;;5054732;28;19904;-63
2021/06/25 06:48:56;;;;;;;;;;;17.10;99.90;;;;;;5069042;28;19921;-62
2021/06/25 06:51:22;;;;;;;;;;;16.90;99.90;;;;;;5059717;28;20712;-63
2021/06/25 06:53:48;;;;;;;;;;;16.90;99.90;;;;;;5072730;28;20281;-63
2021/06/25 06:56:15;;;;;;;;;;;16.90;99.90;;;;;;5056486;28;20285;-62
2021/06/25 06:58:41;;;;;;;;;;;16.90;99.90;;;;;;5051487;28;19916;-63
2021/06/25 07:01:07;;;;;;;;;;;16.80;99.90;;;;;;5052516;28;19916;-63
2021/06/25 07:03:33;;;;;;;;;;;16.70;99.90;;;;;;5051381;28;19912;-63
2021/06/25 07:05:59;;;;;;;;;;;16.70;99.90;;;;;;5052435;28;19905;-61
2021/06/25 07:08:25;;;;;;;;;;;16.60;99.90;;;;;;5069520;28;19920;-63
2021/06/25 07:10:51;;;;;;;;;;;16.60;99.90;;;;;;5070277;28;19912;-63
2021/06/25 07:13:17;;;;;;;;;;;16.90;99.90;;;;;;5071282;28;20296;-63
2021/06/25 07:15:43;;;;;;;;;;;17.10;99.90;;;;;;5071118;28;19912;-64
2021/06/25 07:18:09;;;;;;;;;;;17.30;99.90;;;;;;5069913;28;19920;-67
2021/06/25 07:20:35;;;;;;;;;;;17.50;99.90;;;;;;5070219;28;19908;-63
2021/06/25 07:23:01;;;;;;;;;;;17.90;99.50;;;;;;5071704;28;19913;-63
2021/06/25 07:25:27;;;;;;;;;;;18.40;98.70;;;;;;5071089;28;19916;-64
2021/06/25 07:27:53;;;;;;;;;;;18.50;97.70;;;;;;5072505;28;19924;-63
2021/06/25 07:30:19;;;;;;;;;;;18.30;97.20;;;;;;5074918;28;19919;-63
2021/06/25 07:32:44;;;;;;;;;;;17.60;97.30;;;;;;5073598;28;19927;-63
2021/06/25 07:35:10;;;;;;;;;;;17.30;98.40;;;;;;5070737;28;19931;-62
2021/06/25 07:37:36;;;;;;;;;;;17.10;98.70;;;;;;5066529;28;19925;-62
2021/06/25 07:40:03;;;;;;;;;;;17.20;99.30;;;;;;5073469;28;19958;-62
2021/06/25 07:42:29;;;;;;;;;;;17.20;99.00;;;;;;5056023;28;19915;-64
2021/06/25 07:44:55;;;;;;;;;;;17.20;98.20;;;;;;5074492;28;19951;-63
2021/06/25 07:47:20;;;;;;;;;;;17.20;99.40;;;;;;5073392;28;19912;-63
2021/06/25 07:49:46;;;;;;;;;;;17.30;99.90;;;;;;5055581;28;19916;-63
2021/06/25 07:52:12;;;;;;;;;;;17.30;98.10;;;;;;5063259;28;19916;-63
2021/06/25 07:54:38;;;;;;;;;;;17.20;98.50;;;;;;5052397;28;19913;-63
2021/06/25 07:57:04;;;;;;;;;;;17.20;99.10;;;;;;5068980;28;19912;-63
2021/06/25 07:59:30;;;;;;;;;;;17.20;98.50;;;;;;5072249;28;20354;-63
2021/06/25 08:01:56;;;;;;;;;;;17.30;97.80;;;;;;5072250;28;19920;-63
2021/06/25 08:04:25;;;;;;;;;;;17.40;97.20;;;;;;5067786;28;19975;-63
2021/06/25 08:06:51;;;;;;;;;;;17.40;96.30;;;;;;5074474;28;20365;-62
2021/06/25 08:09:17;;;;;;;;;;;17.60;97.80;;;;;;5073769;28;19927;-63
2021/06/25 08:11:43;;;;;;;;;;;17.70;96.60;;;;;;5073405;28;19927;-62
2021/06/25 08:14:09;;;;;;;;;;;17.80;95.80;;;;;;5073456;28;19962;-61
2021/06/25 08:16:35;;;;;;;;;;;18.00;96.20;;;;;;5073866;28;19908;-63
2021/06/25 08:19:01;;;;;;;;;;;18.10;95.60;;;;;;5055999;28;20368;-62
2021/06/25 08:21:27;;;;;;;;;;;18.30;95.80;;;;;;5061970;28;19909;-63
2021/06/25 08:23:53;;;;;;;;;;;18.40;95.50;;;;;;5071202;28;19917;-62
2021/06/25 08:26:19;;;;;;;;;;;18.40;95.00;;;;;;5074461;28;19909;-63
2021/06/25 08:28:46;;;;;;;;;;;18.60;94.70;;;;;;5071985;28;20335;-63
2021/06/25 08:31:11;;;;;;;;;;;19.20;95.20;;;;;;5074402;28;19905;-63
2021/06/25 08:33:37;;;;;;;;;;;19.40;94.00;;;;;;5055770;28;19912;-63
2021/06/25 08:36:04;;;;;;;;;;;19.20;94.30;;;;;;5073263;28;19908;-64
2021/06/25 08:38:30;;;;;;;;;;;18.90;94.10;;;;;;5055193;28;19920;-64
2021/06/25 08:40:59;;;;;;;;;;;18.70;95.50;;;;;;5072397;28;19923;-63
2021/06/25 08:43:25;;;;;;;;;;;18.30;95.70;;;;;;5073818;28;19912;-61
2021/06/25 08:45:51;;;;;;;;;;;18.60;94.90;;;;;;5072993;28;19915;-61
2021/06/25 08:48:17;;;;;;;;;;;18.60;94.10;;;;;;5055991;28;20731;-64
2021/06/25 08:50:44;;;;;;;;;;;18.60;94.60;;;;;;5067540;28;19916;-61
2021/06/25 08:53:10;;;;;;;;;;;18.70;94.10;;;;;;5035785;28;19905;-60
2021/06/25 08:55:43;;;;;;;;;;;18.60;94.20;;;;;;5046066;28;21859;-61
2021/06/25 08:58:19;;;;;;;;;;;18.60;95.50;;;;;;5059123;28;19913;-64
2021/06/25 09:00:45;;;;;;;;;;;18.80;95.50;;;;;;5071226;28;19919;-61
2021/06/25 09:03:11;;;;;;;;;;;19.50;93.50;;;;;;5069953;28;19904;-68
2021/06/25 09:05:37;;;;;;;;;;;20.50;90.60;;;;;;5071708;28;19913;-62
2021/06/25 09:08:03;;;;;;;;;;;21.40;87.70;;;;;;5070672;28;19920;-64
2021/06/25 09:10:30;;;;;;;;;;;21.20;83.10;;;;;;5072046;28;19913;-60
2021/06/25 09:13:01;;;;;;;;;;;20.90;83.60;;;;;;5071870;28;19912;-60
2021/06/25 09:15:28;;;;;;;;;;;20.40;83.10;;;;;;5070039;28;19916;-62
2021/06/25 09:17:55;;;;;;;;;;;20.10;84.10;;;;;;5052939;28;19916;-62
2021/06/25 09:20:47;;;;;;;;;;;19.90;81.60;;;;;;5070944;28;19921;-62
2021/06/25 09:23:13;;;;;;;;;;;19.60;82.70;;;;;;5067324;28;19915;-62
2021/06/25 09:26:16;;;;;;;;;;;19.50;84.60;;;;;;5069772;28;19912;-62
2021/06/25 09:28:43;;;;;;;2.40;1.50;;;19.20;84.80;;;;;;4989135;28;20412;-62
2021/06/25 09:31:13;;;;;;;2.25;1.45;;;19.10;85.90;;;;;;5056848;28;20539;-62
2021/06/25 09:33:44;;;;;;;2.63;1.50;;;19.50;85.90;;;;;;5071375;28;20182;-63
2021/06/25 09:36:22;;;;;;;5.35;1.90;;;19.60;81.80;;;;;;5069474;28;20186;-62
2021/06/25 09:39:05;;;;;;;2.42;1.70;;;19.40;84.40;;;;;;5050268;28;20186;-62
2021/06/25 09:41:31;;;;;;;1.50;1.20;;;19.50;85.60;;;;;;5044033;28;20158;-61
2021/06/25 09:44:06;;;;;;;2.13;1.33;;;19.40;84.60;;;;;;5070160;28;20555;-62
2021/06/25 09:46:42;;;;;;;2.63;1.60;;;20.30;82.60;;;;;;5069584;28;20182;-62
2021/06/25 09:49:10;;;;;;;1.85;1.20;;;21.20;81.90;;;;;;5069033;28;20550;-62
2021/06/25 09:51:37;;;;;;;2.33;1.25;;;22.00;74.30;;;;;;5069608;28;20170;-63
2021/06/25 09:54:14;;;;;;;2.53;1.15;;;22.70;72.70;;;;;;5068527;28;20405;-63
2021/06/25 09:59:23;;;;;;;1.90;0.90;;;23.00;74.10;;;;;;5065852;28;20386;-64
2021/06/25 10:01:49;;;;;;;3.97;1.20;;;23.00;69.80;;;;;;5069041;28;20377;-65
2021/06/25 10:04:15;;;;;;;1.17;0.80;;;23.00;71.70;;;;;;5066468;28;20559;-63
2021/06/25 10:06:41;;;;;;;2.10;1.00;;;22.60;70.10;;;;;;5069769;28;20766;-64
2021/06/25 10:09:07;;;;;;;1.67;0.90;;;21.90;74.00;;;;;;5070039;28;20933;-63
2021/06/25 10:11:33;;;;;;;1.10;1.00;;;21.30;74.40;;;;;;5062286;28;20394;-64
2021/06/25 10:14:01;;;;;;;1.20;0.70;;;21.00;77.00;;;;;;5067272;28;20409;-64
2021/06/25 10:16:27;;;;;;;1.45;1.10;;;21.00;76.30;;;;;;5068581;28;20763;-63
2021/06/25 10:18:58;;;;;;;1.73;1.20;;;21.20;75.20;;;;;;5067026;28;20405;-63
2021/06/25 10:21:26;;;;;;;1.70;1.02;;;21.30;74.80;;;;;;5057666;28;20392;-63
2021/06/25 10:23:57;;;;;;;1.55;1.10;;;22.20;76.40;;;;;;5035149;28;20764;-63
2021/06/25 10:26:23;;;;;;;2.75;0.73;;;22.60;74.90;;;;;;5067331;28;20397;-64
2021/06/25 10:28:50;;;;;;;2.40;1.00;;;22.40;70.60;;;;;;5068901;28;20406;-62
2021/06/25 10:31:19;;;;;;;2.88;1.40;;;22.80;71.10;;;;;;5051657;28;20382;-63
2021/06/25 10:33:45;;;;;;;1.92;1.30;;;23.00;71.60;;;;;;5048585;28;20406;-62
2021/06/25 10:36:12;;;;;;;2.70;1.50;;;23.00;72.00;;;;;;5068090;28;20882;-63
2021/06/25 10:38:39;;;;;;;1.90;1.42;;;22.20;72.40;;;;;;5068515;28;20394;-63
2021/06/25 10:41:07;;;;;;;3.28;1.52;;;21.20;74.80;;;;;;5069503;28;20394;-63
2021/06/25 10:43:52;;;;;;;3.15;1.55;;;20.90;78.30;;;;;;5066342;28;20381;-63
2021/06/25 10:46:24;;;;;;;2.42;1.80;;;20.60;77.50;;;;;;5068385;28;20733;-63
2021/06/25 10:48:57;;;;;;;2.30;1.52;;;20.40;78.60;;;;;;5068495;28;20409;-63
2021/06/25 10:51:27;;;;;;;3.37;1.60;;;20.20;80.50;;;;;;5069665;28;20377;-63
2021/06/25 10:54:14;;;;;;;3.03;1.50;;;20.20;81.90;;;;;;5067268;28;21346;-63
2021/06/25 10:56:44;;;;;;;2.15;1.48;;;20.00;81.70;;;;;;5062397;28;20858;-64
2021/06/25 10:59:26;;;;;;;1.50;1.30;;;19.70;81.00;;;;;;5067585;28;20385;-63
2021/06/25 11:01:56;;;;;;;3.00;1.40;;;19.60;82.00;;;;;;5047277;28;20398;-64
2021/06/25 11:04:47;;;;;;;1.92;1.40;;;19.60;81.80;;;;;;5069946;28;20394;-64
2021/06/25 11:07:17;;;;;;;2.28;1.50;;;19.40;83.70;;;;;;5070204;28;20389;-62
2021/06/25 11:09:52;;;;;;;2.83;1.50;;;19.30;85.40;;;;;;5072380;28;20414;-63
2021/06/25 11:12:27;;;;;;;2.07;1.43;;;19.20;86.00;;;;;;5071374;28;20382;-64
2021/06/25 11:15:03;;;;;;;2.17;1.20;;;19.20;86.40;;;;;;5073081;28;20743;-64
2021/06/25 11:17:47;;;;;;;3.53;1.30;;;19.40;87.20;;;;;;5074155;28;20715;-63
2021/06/25 11:20:30;;;;;;;2.10;1.33;;;19.50;88.10;;;;;;5073207;28;20446;-63
2021/06/25 11:23:07;;;;;;;2.17;1.20;;;19.50;87.10;;;;;;5057795;28;20402;-63
2021/06/25 11:25:36;;;;;;;2.85;1.30;;;19.50;86.10;;;;;;5073088;28;20386;-63
2021/06/25 11:28:25;;;;;;;1.88;1.40;;;19.40;85.30;;;;;;5058888;28;20384;-63
2021/06/25 11:30:51;;;;;;;2.15;1.40;;;19.60;88.50;;;;;;5054300;28;20395;-63
2021/06/25 11:33:25;;;;;;;2.08;1.40;;;19.60;85.40;;;;;;5073929;28;20758;-63
2021/06/25 11:35:51;;;;;;;5.90;1.42;;;19.50;84.80;;;;;;5073128;28;20395;-63
2021/06/25 11:38:17;;;;;;;2.00;1.30;;;19.50;85.60;;;;;;5071583;28;20398;-64
2021/06/25 11:40:49;;;;;;;;;;;19.50;85.90;;;;;;5073697;28;20874;-63
2021/06/25 11:43:16;;;;;;;;;;;19.40;85.80;;;;;;5074633;28;19912;-64
2021/06/25 11:45:46;;;;;;;;;;;19.50;87.70;;;;;;5043039;28;19920;-63
2021/06/25 11:48:12;;;;;;;;;;;19.40;86.30;;;;;;5068580;28;19920;-63
2021/06/25 11:50:38;;;;;;;;;;;19.20;86.90;;;;;;5072727;28;20372;-63
2021/06/25 11:53:04;;;;;;;;;;;19.30;87.10;;;;;;5056551;28;20387;-63
2021/06/25 11:55:30;;;;;;;;;;;19.50;89.30;;;;;;5071857;28;19970;-63
2021/06/25 11:57:56;;;;;;;;;;;19.40;87.10;;;;;;5073329;28;19908;-63
2021/06/25 12:00:22;;;;;;;;;;;19.30;87.20;;;;;;5074839;28;20582;-63
2021/06/25 12:02:49;;;;;;;;;;;19.20;85.80;;;;;;5073749;28;19912;-63
2021/06/25 12:05:15;;;;;;;;;;;19.00;86.00;;;;;;5074889;28;19913;-63
2021/06/25 12:07:41;;;;;;;;;;;18.60;86.50;;;;;;5073622;28;19913;-63
2021/06/25 12:10:08;;;;;;;;;;;18.70;88.10;;;;;;5056308;28;19927;-62
2021/06/25 12:12:34;;;;;;;;;;;18.70;88.50;;;;;;5074422;28;20296;-63
2021/06/25 12:15:04;;;;;;;;;;;18.70;88.60;;;;;;5073683;28;20313;-63
2021/06/25 12:17:46;;;;;;;;;;;19.00;89.00;;;;;;5074186;28;19909;-63
2021/06/25 12:20:12;;;;;;;;;;;19.20;89.20;;;;;;5073516;28;19967;-62
2021/06/25 12:22:51;;;;;;;;;;;19.30;88.60;;;;;;5074992;28;20364;-64
2021/06/25 12:25:30;;;;;;;;;;;19.40;89.20;;;;;;5065384;28;19915;-62
2021/06/25 12:27:56;;;;;;;;;;;19.50;89.40;;;;;;5063005;28;19908;-63
2021/06/25 12:30:23;;;;;;;;;;;19.30;89.60;;;;;;5073002;28;19962;-63
2021/06/25 12:33:05;;;;;;;;;;;19.30;88.30;;;;;;5074230;28;19915;-63
2021/06/25 12:35:31;;;;;;;;;;;19.10;87.60;;;;;;5075264;28;19908;-63
2021/06/25 12:37:57;;;;;;;;;;;19.20;89.80;;;;;;5074188;28;20254;-63
2021/06/25 12:40:35;;;;;;;;;;;19.20;87.90;;;;;;5073725;28;19938;-63
2021/06/25 12:43:01;;;;;;;;;;;19.30;87.90;;;;;;5065771;28;20408;-63
2021/06/25 12:45:35;;;;;;;;;;;19.50;87.90;;;;;;5073548;28;19962;-62
2021/06/25 12:48:02;;;;;;;;;;;19.50;87.30;;;;;;5051982;28;20293;-64
2021/06/25 12:50:28;;;;;;;;;;;19.40;86.30;;;;;;5053533;28;20411;-63
2021/06/25 12:53:08;;;;;;;;;;;19.30;88.30;;;;;;5055368;28;19904;-64
2021/06/25 12:55:34;;;;;;;;;;;19.30;87.30;;;;;;5061880;28;19909;-64
2021/06/25 12:58:00;;;;;;;;;;;19.20;86.70;;;;;;5067379;28;19916;-65
2021/06/25 13:00:28;;;;;;;;;;;19.30;88.00;;;;;;5050045;28;19913;-64
2021/06/25 13:02:54;;;;;;;;;;;19.30;88.30;;;;;;5050345;28;19923;-64
2021/06/25 13:05:32;;;;;;;;;;;19.30;87.50;;;;;;5055271;28;19912;-64
2021/06/25 13:07:59;;;;;;;;;;;19.30;88.50;;;;;;5073480;28;20254;-64
2021/06/25 13:10:25;;;;;;;;;;;19.30;89.60;;;;;;5073395;28;19916;-64
2021/06/25 13:12:51;;;;;;;;;;;18.90;87.50;;;;;;5073242;28;19915;-64
2021/06/25 13:15:17;;;;;;;;;;;18.90;90.40;;;;;;5073333;28;19917;-61
2021/06/25 13:17:43;;;;;;;;;;;18.90;90.50;;;;;;5072231;28;20285;-63
2021/06/25 13:20:24;;;;;;;;;;;19.00;90.40;;;;;;5072930;28;19912;-63
2021/06/25 13:23:10;;;;;;;;;;;18.90;90.20;;;;;;5071947;28;19915;-62
2021/06/25 13:25:52;;;;;;;;;;;18.90;90.10;;;;;;5069602;28;19908;-63
2021/06/25 13:28:18;;;;;;;;;;;18.60;90.30;;;;;;5055448;28;20308;-62
2021/06/25 13:30:44;;;;;;;;;;;18.70;90.80;;;;;;5072387;28;19921;-63
2021/06/25 13:33:12;;;;;;;;;;;18.40;90.00;;;;;;5071291;28;19912;-63
2021/06/25 13:35:38;;;;;;;;;;;18.10;91.00;;;;;;5072010;28;20372;-63
2021/06/25 13:38:16;;;;;;;;;;;18.30;91.90;;;;;;5070056;28;19916;-63
2021/06/25 13:40:51;;;;;;;;;;;18.30;91.20;;;;;;5071617;28;20361;-63
2021/06/25 13:43:17;;;;;;;;;;;18.40;91.60;;;;;;5071044;28;19908;-63
2021/06/25 13:45:44;;;;;;;;;;;18.40;91.50;;;;;;5053154;28;19912;-64
2021/06/25 13:48:16;;;;;;;;;;;18.60;91.50;;;;;;5051670;28;20360;-63
2021/06/25 13:50:43;;;;;;;;;;;18.40;91.10;;;;;;5072480;28;19923;-63
2021/06/25 13:53:09;;;;;;;;;;;18.50;90.90;;;;;;5071058;28;19912;-63
2021/06/25 13:55:35;;;;;;;;;;;18.60;91.50;;;;;;5054423;28;19959;-63
2021/06/25 13:58:04;;;;;;;;;;;18.70;91.50;;;;;;5072194;28;19909;-63
2021/06/25 14:00:34;;;;;;;;;;;18.70;90.10;;;;;;5072362;28;19905;-61
2021/06/25 14:03:00;;;;;;;;;;;18.60;90.60;;;;;;5068963;28;19908;-62
2021/06/25 14:05:26;;;;;;;;;;;18.70;91.00;;;;;;5072602;28;20030;-63
2021/06/25 14:07:56;;;;;;;;;;;18.80;90.90;;;;;;5072974;28;19916;-62
2021/06/25 14:10:22;;;;;;;;;;;18.70;90.10;;;;;;5052703;28;19924;-62
2021/06/25 14:12:48;;;;;;;;;;;18.70;90.90;;;;;;5054086;28;20364;-63
2021/06/25 14:15:14;;;;;;;;;;;18.70;91.00;;;;;;5072098;28;19923;-63